sensor_id;sensor_type;location;lat;lon;timestamp;pressure;altitude;pressure_sealevel;temperature;humidity
62725;BME280;49026;52.600;4.694;2023-03-03T00:02:01;102657.91;;;0.15;71.65
62725;BME280;49026;52.600;4.694;2023-03-03T00:04:27;102659.50;;;0.12;71.88
62725;BME280;49026;52.600;4.694;2023-03-03T00:06:55;102657.75;;;0.11;71.64
62725;BME280;49026;52.600;4.694;2023-03-03T00:09:21;102656.88;;;0.10;71.72
62725;BME280;49026;52.600;4.694;2023-03-03T00:11:49;102655.88;;;0.07;71.52
62725;BME280;49026;52.600;4.694;2023-03-03T00:14:28;102658.31;;;0.02;71.55
62725;BME280;49026;52.600;4.694;2023-03-03T00:16:55;102660.00;;;0.00;72.07
62725;BME280;49026;52.600;4.694;2023-03-03T00:19:21;102658.31;;;0.02;71.91
62725;BME280;49026;52.600;4.694;2023-03-03T00:21:49;102660.97;;;0.04;72.03
62725;BME280;49026;52.600;4.694;2023-03-03T00:26:44;102660.91;;;0.02;71.72
62725;BME280;49026;52.600;4.694;2023-03-03T00:29:29;102668.66;;;0.02;71.66
62725;BME280;49026;52.600;4.694;2023-03-03T00:34:40;102666.22;;;0.07;71.87
62725;BME280;49026;52.600;4.694;2023-03-03T00:37:22;102668.09;;;0.11;71.84
62725;BME280;49026;52.600;4.694;2023-03-03T00:39:49;102678.56;;;0.15;72.13
62725;BME280;49026;52.600;4.694;2023-03-03T00:42:16;102678.69;;;0.18;71.99
62725;BME280;49026;52.600;4.694;2023-03-03T00:44:58;102674.38;;;0.19;71.85
62725;BME280;49026;52.600;4.694;2023-03-03T00:47:37;102675.19;;;0.18;71.99
62725;BME280;49026;52.600;4.694;2023-03-03T00:52:37;102668.94;;;0.11;71.63
62725;BME280;49026;52.600;4.694;2023-03-03T00:55:04;102668.03;;;0.09;72.07
62725;BME280;49026;52.600;4.694;2023-03-03T00:57:30;102667.97;;;0.08;71.90
62725;BME280;49026;52.600;4.694;2023-03-03T00:59:56;102677.50;;;0.09;72.03
62725;BME280;49026;52.600;4.694;2023-03-03T01:02:21;102672.34;;;0.09;72.02
62725;BME280;49026;52.600;4.694;2023-03-03T01:04:52;102678.31;;;0.08;71.97
62725;BME280;49026;52.600;4.694;2023-03-03T01:07:20;102675.69;;;0.06;72.05
62725;BME280;49026;52.600;4.694;2023-03-03T01:09:45;102673.88;;;0.04;72.20
62725;BME280;49026;52.600;4.694;2023-03-03T01:12:11;102677.19;;;-0.01;71.86
62725;BME280;49026;52.600;4.694;2023-03-03T01:14:37;102681.44;;;-0.03;72.20
62725;BME280;49026;52.600;4.694;2023-03-03T01:17:03;102677.25;;;0.01;71.63
62725;BME280;49026;52.600;4.694;2023-03-03T01:19:29;102675.56;;;0.03;72.15
62725;BME280;49026;52.600;4.694;2023-03-03T01:21:55;102679.13;;;0.05;72.05
62725;BME280;49026;52.600;4.694;2023-03-03T01:24:20;102677.50;;;0.09;71.94
62725;BME280;49026;52.600;4.694;2023-03-03T01:26:46;102677.50;;;0.09;72.07
62725;BME280;49026;52.600;4.694;2023-03-03T01:29:11;102681.94;;;0.13;72.04
62725;BME280;49026;52.600;4.694;2023-03-03T01:31:36;102673.34;;;0.14;71.86
62725;BME280;49026;52.600;4.694;2023-03-03T01:34:02;102671.47;;;0.10;71.93
62725;BME280;49026;52.600;4.694;2023-03-03T01:36:31;102670.63;;;0.09;72.03
62725;BME280;49026;52.600;4.694;2023-03-03T01:38:57;102676.66;;;0.10;71.70
62725;BME280;49026;52.600;4.694;2023-03-03T01:41:22;102675.63;;;0.05;72.20
62725;BME280;49026;52.600;4.694;2023-03-03T01:43:51;102675.56;;;0.03;72.14
62725;BME280;49026;52.600;4.694;2023-03-03T01:49:13;102673.78;;;0.01;72.24
62725;BME280;49026;52.600;4.694;2023-03-03T01:51:46;102673.72;;;-0.01;72.42
62725;BME280;49026;52.600;4.694;2023-03-03T01:54:21;102660.75;;;-0.03;72.30
62725;BME280;49026;52.600;4.694;2023-03-03T01:56:49;102667.63;;;-0.03;71.90
62725;BME280;49026;52.600;4.694;2023-03-03T01:59:22;102671.16;;;-0.01;72.22
62725;BME280;49026;52.600;4.694;2023-03-03T02:01:49;102669.53;;;0.03;71.83
62725;BME280;49026;52.600;4.694;2023-03-03T02:04:16;102668.78;;;0.07;72.44
62725;BME280;49026;52.600;4.694;2023-03-03T02:06:50;102667.16;;;0.09;72.12
62725;BME280;49026;52.600;4.694;2023-03-03T02:09:25;102661.94;;;0.07;72.39
62725;BME280;49026;52.600;4.694;2023-03-03T02:11:58;102660.00;;;0.02;72.43
62725;BME280;49026;52.600;4.694;2023-03-03T02:14:25;102654.81;;;0.00;72.45
62725;BME280;49026;52.600;4.694;2023-03-03T02:16:51;102657.44;;;0.02;72.50
62725;BME280;49026;52.600;4.694;2023-03-03T02:21:48;102651.28;;;-0.02;72.30
62725;BME280;49026;52.600;4.694;2023-03-03T02:24:56;102642.56;;;-0.06;72.50
62725;BME280;49026;52.600;4.694;2023-03-03T02:27:14;102652.09;;;-0.05;72.68
62725;BME280;49026;52.600;4.694;2023-03-03T02:29:39;102647.00;;;-0.02;72.39
62725;BME280;49026;52.600;4.694;2023-03-03T02:32:04;102645.34;;;0.01;72.21
62725;BME280;49026;52.600;4.694;2023-03-03T02:34:30;102646.28;;;0.03;72.46
62725;BME280;49026;52.600;4.694;2023-03-03T02:36:55;102646.16;;;-0.01;72.29
62725;BME280;49026;52.600;4.694;2023-03-03T02:39:24;102644.38;;;-0.03;72.56
62725;BME280;49026;52.600;4.694;2023-03-03T02:42:07;102644.31;;;-0.05;72.45
62725;BME280;49026;52.600;4.694;2023-03-03T02:44:34;102644.31;;;-0.05;72.25
62725;BME280;49026;52.600;4.694;2023-03-03T02:47:00;102645.16;;;-0.06;72.44
62725;BME280;49026;52.600;4.694;2023-03-03T02:49:30;102645.16;;;-0.06;72.65
62725;BME280;49026;52.600;4.694;2023-03-03T02:51:56;102644.28;;;-0.06;72.46
62725;BME280;49026;52.600;4.694;2023-03-03T02:54:23;102647.88;;;-0.01;72.58
62725;BME280;49026;52.600;4.694;2023-03-03T02:56:49;102644.50;;;0.02;72.29
62725;BME280;49026;52.600;4.694;2023-03-03T02:59:15;102648.84;;;0.03;72.21
62725;BME280;49026;52.600;4.694;2023-03-03T03:01:41;102657.44;;;0.02;72.22
62725;BME280;49026;52.600;4.694;2023-03-03T03:04:13;102658.31;;;0.02;72.59
62725;BME280;49026;52.600;4.694;2023-03-03T03:06:39;102653.97;;;0.01;72.34
62725;BME280;49026;52.600;4.694;2023-03-03T03:09:06;102648.75;;;-0.01;72.49
62725;BME280;49026;52.600;4.694;2023-03-03T03:11:32;102652.25;;;0.02;72.63
62725;BME280;49026;52.600;4.694;2023-03-03T03:13:59;102648.84;;;0.03;72.47
62725;BME280;49026;52.600;4.694;2023-03-03T03:16:25;102654.03;;;0.03;73.00
62725;BME280;49026;52.600;4.694;2023-03-03T03:18:50;102654.91;;;0.03;72.92
62725;BME280;49026;52.600;4.694;2023-03-03T03:21:16;102643.69;;;0.03;72.51
62725;BME280;49026;52.600;4.694;2023-03-03T03:23:42;102646.16;;;-0.01;72.72
62725;BME280;49026;52.600;4.694;2023-03-03T03:26:07;102656.44;;;-0.02;72.81
62725;BME280;49026;52.600;4.694;2023-03-03T03:28:33;102650.31;;;-0.06;72.84
62725;BME280;49026;52.600;4.694;2023-03-03T03:30:59;102650.38;;;-0.04;72.60
62725;BME280;49026;52.600;4.694;2023-03-03T03:33:24;102651.22;;;-0.04;72.67
62725;BME280;49026;52.600;4.694;2023-03-03T03:35:52;102657.25;;;-0.05;72.47
62725;BME280;49026;52.600;4.694;2023-03-03T03:38:17;102659.84;;;-0.05;72.35
62725;BME280;49026;52.600;4.694;2023-03-03T03:40:43;102661.56;;;-0.04;72.71
62725;BME280;49026;52.600;4.694;2023-03-03T03:43:08;102661.53;;;-0.05;72.64
62725;BME280;49026;52.600;4.694;2023-03-03T03:45:34;102660.75;;;-0.03;72.75
62725;BME280;49026;52.600;4.694;2023-03-03T03:47:59;102657.25;;;-0.05;72.34
62725;BME280;49026;52.600;4.694;2023-03-03T03:50:25;102660.69;;;-0.04;72.90
62725;BME280;49026;52.600;4.694;2023-03-03T03:52:50;102661.63;;;-0.02;72.73
62725;BME280;49026;52.600;4.694;2023-03-03T03:55:15;102654.81;;;0.00;72.73
62725;BME280;49026;52.600;4.694;2023-03-03T03:57:41;102655.69;;;0.01;72.24
62725;BME280;49026;52.600;4.694;2023-03-03T04:00:09;102654.81;;;0.00;72.63
62725;BME280;49026;52.600;4.694;2023-03-03T04:02:34;102653.97;;;0.01;72.85
62725;BME280;49026;52.600;4.694;2023-03-03T04:05:00;102663.44;;;0.01;73.06
62725;BME280;49026;52.600;4.694;2023-03-03T04:07:25;102659.09;;;-0.01;73.08
62725;BME280;49026;52.600;4.694;2023-03-03T04:09:51;102660.81;;;-0.01;72.62
62725;BME280;49026;52.600;4.694;2023-03-03T04:12:16;102653.91;;;-0.01;72.82
62725;BME280;49026;52.600;4.694;2023-03-03T04:14:42;102654.81;;;0.00;72.78
62725;BME280;49026;52.600;4.694;2023-03-03T04:17:07;102663.41;;;-0.01;73.04
62725;BME280;49026;52.600;4.694;2023-03-03T04:19:34;102665.94;;;-0.03;73.07
62725;BME280;49026;52.600;4.694;2023-03-03T04:22:00;102663.28;;;-0.04;72.98
62725;BME280;49026;52.600;4.694;2023-03-03T04:24:25;102665.00;;;-0.05;73.03
62725;BME280;49026;52.600;4.694;2023-03-03T04:26:50;102665.81;;;-0.06;73.05
62725;BME280;49026;52.600;4.694;2023-03-03T04:29:16;102663.22;;;-0.06;72.77
62725;BME280;49026;52.600;4.694;2023-03-03T04:31:41;102665.75;;;-0.07;72.86
62725;BME280;49026;52.600;4.694;2023-03-03T04:34:06;102664.03;;;-0.08;72.57
62725;BME280;49026;52.600;4.694;2023-03-03T04:36:32;102665.72;;;-0.09;73.14
62725;BME280;49026;52.600;4.694;2023-03-03T04:38:57;102665.75;;;-0.07;73.10
62725;BME280;49026;52.600;4.694;2023-03-03T04:41:23;102666.56;;;-0.10;72.68
62725;BME280;49026;52.600;4.694;2023-03-03T04:43:48;102663.88;;;-0.13;72.92
62725;BME280;49026;52.600;4.694;2023-03-03T04:46:13;102661.13;;;-0.17;72.71
62725;BME280;49026;52.600;4.694;2023-03-03T04:48:39;102666.13;;;-0.22;73.17
62725;BME280;49026;52.600;4.694;2023-03-03T04:51:04;102663.44;;;-0.25;72.92
62725;BME280;49026;52.600;4.694;2023-03-03T04:53:30;102663.44;;;-0.25;73.40
62725;BME280;49026;52.600;4.694;2023-03-03T04:55:55;102672.16;;;-0.23;73.24
62725;BME280;49026;52.600;4.694;2023-03-03T04:58:20;102670.47;;;-0.21;72.80
62725;BME280;49026;52.600;4.694;2023-03-03T05:00:47;102675.59;;;-0.23;73.03
62725;BME280;49026;52.600;4.694;2023-03-03T05:03:17;102674.72;;;-0.23;72.92
62725;BME280;49026;52.600;4.694;2023-03-03T05:05:45;102678.19;;;-0.23;73.03
62725;BME280;49026;52.600;4.694;2023-03-03T05:08:10;102671.25;;;-0.24;72.96
62725;BME280;49026;52.600;4.694;2023-03-03T05:10:36;102672.09;;;-0.25;72.88
62725;BME280;49026;52.600;4.694;2023-03-03T05:13:03;102670.38;;;-0.24;72.96
62725;BME280;49026;52.600;4.694;2023-03-03T05:15:29;102672.78;;;-0.29;72.88
62725;BME280;49026;52.600;4.694;2023-03-03T05:17:54;102665.78;;;-0.33;72.92
62725;BME280;49026;52.600;4.694;2023-03-03T05:20:21;102669.19;;;-0.34;72.92
62725;BME280;49026;52.600;4.694;2023-03-03T05:22:46;102676.06;;;-0.34;72.84
62725;BME280;49026;52.600;4.694;2023-03-03T05:25:11;102670.09;;;-0.33;72.83
62725;BME280;49026;52.600;4.694;2023-03-03T05:27:37;102666.66;;;-0.32;72.81
62725;BME280;49026;52.600;4.694;2023-03-03T05:30:03;102668.41;;;-0.31;72.89
62725;BME280;49026;52.600;4.694;2023-03-03T05:32:29;102665.00;;;-0.30;72.93
62725;BME280;49026;52.600;4.694;2023-03-03T05:34:54;102666.75;;;-0.29;72.76
62725;BME280;49026;52.600;4.694;2023-03-03T05:37:20;102668.41;;;-0.31;72.73
62725;BME280;49026;52.600;4.694;2023-03-03T05:39:45;102666.53;;;-0.35;72.86
62725;BME280;49026;52.600;4.694;2023-03-03T05:42:11;102674.28;;;-0.35;73.08
62725;BME280;49026;52.600;4.694;2023-03-03T05:44:37;102666.53;;;-0.35;73.04
62725;BME280;49026;52.600;4.694;2023-03-03T05:47:03;102666.59;;;-0.34;72.50
62725;BME280;49026;52.600;4.694;2023-03-03T05:49:28;102669.13;;;-0.35;72.78
62725;BME280;49026;52.600;4.694;2023-03-03T05:51:54;102673.38;;;-0.38;72.99
62725;BME280;49026;52.600;4.694;2023-03-03T05:54:19;102673.41;;;-0.36;73.10
62725;BME280;49026;52.600;4.694;2023-03-03T05:56:44;102672.66;;;-0.33;73.22
62725;BME280;49026;52.600;4.694;2023-03-03T05:59:12;102679.63;;;-0.31;73.07
62725;BME280;49026;52.600;4.694;2023-03-03T06:01:37;102681.44;;;-0.28;72.88
62725;BME280;49026;52.600;4.694;2023-03-03T06:04:03;102678.88;;;-0.28;73.27
62725;BME280;49026;52.600;4.694;2023-03-03T06:06:31;102678.88;;;-0.28;72.85
62725;BME280;49026;52.600;4.694;2023-03-03T06:08:57;102680.66;;;-0.26;72.77
62725;BME280;49026;52.600;4.694;2023-03-03T06:11:22;102678.94;;;-0.25;72.63
62725;BME280;49026;52.600;4.694;2023-03-03T06:13:48;102683.41;;;-0.21;73.09
62725;BME280;49026;52.600;4.694;2023-03-03T06:16:13;102680.06;;;-0.17;73.14
62725;BME280;49026;52.600;4.694;2023-03-03T06:18:39;102680.13;;;-0.15;73.55
62725;BME280;49026;52.600;4.694;2023-03-03T06:21:04;102687.13;;;-0.13;73.18
62725;BME280;49026;52.600;4.694;2023-03-03T06:23:30;102688.06;;;-0.11;72.91
62725;BME280;49026;52.600;4.694;2023-03-03T06:25:56;102685.63;;;-0.06;73.29
62725;BME280;49026;52.600;4.694;2023-03-03T06:28:22;102687.38;;;-0.05;72.91
62725;BME280;49026;52.600;4.694;2023-03-03T06:30:52;102684.72;;;-0.08;73.38
62725;BME280;49026;52.600;4.694;2023-03-03T06:33:18;102688.97;;;-0.09;73.10
62725;BME280;49026;52.600;4.694;2023-03-03T06:35:43;102692.34;;;-0.11;73.01
62725;BME280;49026;52.600;4.694;2023-03-03T06:38:09;102695.63;;;-0.15;72.96
62725;BME280;49026;52.600;4.694;2023-03-03T06:40:34;102686.00;;;-0.21;73.00
62725;BME280;49026;52.600;4.694;2023-03-03T06:43:00;102685.13;;;-0.22;73.25
62725;BME280;49026;52.600;4.694;2023-03-03T06:45:27;102695.53;;;-0.19;73.29
62725;BME280;49026;52.600;4.694;2023-03-03T06:47:52;102693.97;;;-0.15;73.19
62725;BME280;49026;52.600;4.694;2023-03-03T06:50:19;102698.44;;;-0.09;73.29
62725;BME280;49026;52.600;4.694;2023-03-03T06:52:47;102693.50;;;-0.03;73.07
62725;BME280;49026;52.600;4.694;2023-03-03T06:55:22;102699.88;;;0.08;73.45
62725;BME280;49026;52.600;4.694;2023-03-03T06:57:48;102699.38;;;0.20;73.77
62725;BME280;49026;52.600;4.694;2023-03-03T07:00:15;102702.38;;;0.32;73.65
62725;BME280;49026;52.600;4.694;2023-03-03T07:02:41;102703.63;;;0.44;73.76
62725;BME280;49026;52.600;4.694;2023-03-03T07:05:14;102710.78;;;0.52;74.27
62725;BME280;49026;52.600;4.694;2023-03-03T07:07:40;102707.59;;;0.61;74.54
62725;BME280;49026;52.600;4.694;2023-03-03T07:10:15;102703.69;;;0.74;74.95
62725;BME280;49026;52.600;4.694;2023-03-03T07:12:42;102707.53;;;0.88;75.27
62725;BME280;49026;52.600;4.694;2023-03-03T07:15:41;102703.53;;;0.98;75.96
62725;BME280;49026;52.600;4.694;2023-03-03T07:17:59;102705.72;;;1.15;76.12
62725;BME280;49026;52.600;4.694;2023-03-03T07:20:35;102712.28;;;1.32;76.56
62725;BME280;49026;52.600;4.694;2023-03-03T07:23:23;102724.84;;;1.50;76.74
62725;BME280;49026;52.600;4.694;2023-03-03T07:25:50;102730.50;;;1.67;77.13
62725;BME280;49026;52.600;4.694;2023-03-03T07:28:25;102727.56;;;1.87;78.09
62725;BME280;49026;52.600;4.694;2023-03-03T07:30:56;102728.06;;;2.07;77.79
62725;BME280;49026;52.600;4.694;2023-03-03T07:33:34;102733.69;;;2.23;78.32
62725;BME280;49026;52.600;4.694;2023-03-03T07:36:01;102727.25;;;2.43;78.61
62725;BME280;49026;52.600;4.694;2023-03-03T07:38:38;102729.41;;;2.62;78.21
62725;BME280;49026;52.600;4.694;2023-03-03T07:41:11;102732.41;;;2.79;78.42
62725;BME280;49026;52.600;4.694;2023-03-03T07:43:42;102739.66;;;2.95;78.57
62725;BME280;49026;52.600;4.694;2023-03-03T07:46:19;102741.75;;;3.12;78.76
62725;BME280;49026;52.600;4.694;2023-03-03T07:48:48;102741.19;;;3.27;78.99
62725;BME280;49026;52.600;4.694;2023-03-03T07:51:25;102739.88;;;3.47;78.88
62725;BME280;49026;52.600;4.694;2023-03-03T07:54:15;102741.13;;;3.66;78.33
62725;BME280;49026;52.600;4.694;2023-03-03T07:56:38;102757.88;;;3.82;78.47
62725;BME280;49026;52.600;4.694;2023-03-03T07:59:26;102747.75;;;3.96;78.02
62725;BME280;49026;52.600;4.694;2023-03-03T08:01:56;102754.03;;;4.09;77.57
62725;BME280;49026;52.600;4.694;2023-03-03T08:04:37;102753.44;;;4.25;78.17
62725;BME280;49026;52.600;4.694;2023-03-03T08:07:11;102759.84;;;4.44;77.65
62725;BME280;49026;52.600;4.694;2023-03-03T08:09:42;102758.47;;;4.68;78.09
62725;BME280;49026;52.600;4.694;2023-03-03T08:12:23;102762.38;;;4.98;78.02
62725;BME280;49026;52.600;4.694;2023-03-03T08:14:53;102760.16;;;5.29;77.41
62725;BME280;49026;52.600;4.694;2023-03-03T08:17:21;102768.34;;;5.60;77.53
62725;BME280;49026;52.600;4.694;2023-03-03T08:19:48;102764.28;;;5.85;77.07
62725;BME280;49026;52.600;4.694;2023-03-03T08:22:18;102770.69;;;6.15;78.22
62725;BME280;49026;52.600;4.694;2023-03-03T08:24:49;102772.59;;;6.34;77.84
62725;BME280;49026;52.600;4.694;2023-03-03T08:27:14;102771.84;;;6.46;77.56
62725;BME280;49026;52.600;4.694;2023-03-03T08:29:40;102771.06;;;6.59;77.77
62725;BME280;49026;52.600;4.694;2023-03-03T08:32:05;102760.78;;;6.82;78.38
62725;BME280;49026;52.600;4.694;2023-03-03T08:34:30;102759.19;;;7.09;78.11
62725;BME280;49026;52.600;4.694;2023-03-03T08:36:56;102761.03;;;7.30;77.01
62725;BME280;49026;52.600;4.694;2023-03-03T08:39:24;102760.16;;;7.36;77.29
62725;BME280;49026;52.600;4.694;2023-03-03T08:41:50;102767.16;;;7.43;77.50
62725;BME280;49026;52.600;4.694;2023-03-03T08:44:15;102767.22;;;7.52;77.43
62725;BME280;49026;52.600;4.694;2023-03-03T08:46:41;102768.94;;;7.53;76.66
62725;BME280;49026;52.600;4.694;2023-03-03T08:49:08;102775.06;;;7.54;77.18
62725;BME280;49026;52.600;4.694;2023-03-03T08:51:33;102774.22;;;7.61;76.85
62725;BME280;49026;52.600;4.694;2023-03-03T08:53:59;102770.72;;;7.68;76.10
62725;BME280;49026;52.600;4.694;2023-03-03T08:56:24;102766.41;;;7.76;76.09
62725;BME280;49026;52.600;4.694;2023-03-03T08:58:49;102762.94;;;7.90;76.16
62725;BME280;49026;52.600;4.694;2023-03-03T09:01:15;102762.97;;;8.01;74.80
62725;BME280;49026;52.600;4.694;2023-03-03T09:03:42;102771.69;;;8.16;74.99
62725;BME280;49026;52.600;4.694;2023-03-03T09:06:07;102766.50;;;8.29;74.65
62725;BME280;49026;52.600;4.694;2023-03-03T09:08:33;102766.47;;;8.38;74.00
62725;BME280;49026;52.600;4.694;2023-03-03T09:10:59;102770.88;;;8.48;71.77
62725;BME280;49026;52.600;4.694;2023-03-03T09:13:28;102764.78;;;8.56;71.37
62725;BME280;49026;52.600;4.694;2023-03-03T09:15:55;102766.47;;;8.74;73.06
62725;BME280;49026;52.600;4.694;2023-03-03T09:18:37;102767.31;;;8.97;73.29
62725;BME280;49026;52.600;4.694;2023-03-03T09:21:25;102755.00;;;9.25;72.74
62725;BME280;49026;52.600;4.694;2023-03-03T09:23:59;102764.50;;;9.45;70.87
62725;BME280;49026;52.600;4.694;2023-03-03T09:29:28;102768.91;;;9.34;66.32
62725;BME280;49026;52.600;4.694;2023-03-03T09:31:59;102772.44;;;9.37;69.86
62725;BME280;49026;52.600;4.694;2023-03-03T09:37:00;102771.25;;;9.92;71.29
62725;BME280;49026;52.600;4.694;2023-03-03T09:39:29;102770.19;;;10.18;71.38
62725;BME280;49026;52.600;4.694;2023-03-03T09:50:29;102762.84;;;9.25;69.60
62725;BME280;49026;52.600;4.694;2023-03-03T10:09:55;102780.47;;;8.46;73.28
62725;BME280;49026;52.600;4.694;2023-03-03T10:12:32;102778.47;;;9.52;70.77
62725;BME280;49026;52.600;4.694;2023-03-03T10:15:02;102774.47;;;10.31;70.83
62725;BME280;49026;52.600;4.694;2023-03-03T10:17:50;102773.03;;;10.94;65.97
62725;BME280;49026;52.600;4.694;2023-03-03T10:25:58;102781.69;;;10.05;66.00
62725;BME280;49026;52.600;4.694;2023-03-03T10:39:46;102782.22;;;8.43;71.51
62725;BME280;49026;52.600;4.694;2023-03-03T10:53:33;102788.28;;;8.25;73.08
62725;BME280;49026;52.600;4.694;2023-03-03T10:56:36;102789.19;;;8.22;71.62
62725;BME280;49026;52.600;4.694;2023-03-03T11:02:21;102788.28;;;8.08;71.33
62725;BME280;49026;52.600;4.694;2023-03-03T11:18:31;102790.06;;;8.78;71.93
62725;BME280;49026;52.600;4.694;2023-03-03T11:21:28;102789.97;;;9.15;72.37
62725;BME280;49026;52.600;4.694;2023-03-03T11:30:17;102788.25;;;9.08;63.08
62725;BME280;49026;52.600;4.694;2023-03-03T11:35:57;102784.81;;;8.90;70.95
62725;BME280;49026;52.600;4.694;2023-03-03T11:38:37;102792.69;;;8.92;72.22
62725;BME280;49026;52.600;4.694;2023-03-03T11:41:19;102797.06;;;8.79;72.19
62725;BME280;49026;52.600;4.694;2023-03-03T11:44:15;102798.81;;;8.73;72.73
62725;BME280;49026;52.600;4.694;2023-03-03T11:46:52;102790.09;;;8.52;71.65
62725;BME280;49026;52.600;4.694;2023-03-03T11:52:18;102797.00;;;8.10;69.78
62725;BME280;49026;52.600;4.694;2023-03-03T11:54:52;102790.91;;;8.12;71.79
62725;BME280;49026;52.600;4.694;2023-03-03T12:05:49;102789.13;;;7.85;72.51
62725;BME280;49026;52.600;4.694;2023-03-03T12:24:25;102767.34;;;8.11;70.67
62725;BME280;49026;52.600;4.694;2023-03-03T12:29:42;102770.00;;;8.52;70.73
62725;BME280;49026;52.600;4.694;2023-03-03T12:35:34;102762.13;;;8.62;69.55
62725;BME280;49026;52.600;4.694;2023-03-03T12:38:14;102764.75;;;8.68;71.89
62725;BME280;49026;52.600;4.694;2023-03-03T12:40:52;102759.47;;;8.80;71.64
62725;BME280;49026;52.600;4.694;2023-03-03T12:43:32;102766.47;;;8.90;70.42
62725;BME280;49026;52.600;4.694;2023-03-03T12:48:40;102760.19;;;9.28;72.37
62725;BME280;49026;52.600;4.694;2023-03-03T13:00:18;102762.13;;;8.62;72.21
62725;BME280;49026;52.600;4.694;2023-03-03T13:05:46;102748.94;;;9.00;72.01
62725;BME280;49026;52.600;4.694;2023-03-03T13:13:33;102753.38;;;8.23;72.02
62725;BME280;49026;52.600;4.694;2023-03-03T13:16:16;102746.41;;;8.17;72.68
62725;BME280;49026;52.600;4.694;2023-03-03T13:18:55;102755.13;;;8.27;72.80
62725;BME280;49026;52.600;4.694;2023-03-03T13:21:26;102752.50;;;8.21;71.79
62725;BME280;49026;52.600;4.694;2023-03-03T13:24:16;102743.78;;;8.12;72.41
62725;BME280;49026;52.600;4.694;2023-03-03T13:31:48;102746.38;;;8.00;71.53
62725;BME280;49026;52.600;4.694;2023-03-03T13:37:26;102748.97;;;7.78;71.48
62725;BME280;49026;52.600;4.694;2023-03-03T13:43:02;102748.97;;;7.82;71.73
62725;BME280;49026;52.600;4.694;2023-03-03T13:46:00;102754.25;;;7.97;71.81
62725;BME280;49026;52.600;4.694;2023-03-03T13:49:31;102746.38;;;7.97;71.69
62725;BME280;49026;52.600;4.694;2023-03-03T13:51:43;102746.38;;;7.97;71.75
62725;BME280;49026;52.600;4.694;2023-03-03T14:02:25;102742.91;;;8.29;71.56
62725;BME280;49026;52.600;4.694;2023-03-03T14:05:02;102738.53;;;8.29;71.59
62725;BME280;49026;52.600;4.694;2023-03-03T14:07:39;102729.81;;;8.26;71.20
62725;BME280;49026;52.600;4.694;2023-03-03T14:10:24;102735.03;;;8.13;71.21
62725;BME280;49026;52.600;4.694;2023-03-03T14:15:30;102725.44;;;8.05;71.30
62725;BME280;49026;52.600;4.694;2023-03-03T14:20:53;102733.28;;;8.03;71.14
62725;BME280;49026;52.600;4.694;2023-03-03T14:23:47;102734.16;;;8.13;71.66
62725;BME280;49026;52.600;4.694;2023-03-03T14:26:14;102732.44;;;8.21;71.67
62725;BME280;49026;52.600;4.694;2023-03-03T14:28:41;102727.19;;;8.37;71.60
62725;BME280;49026;52.600;4.694;2023-03-03T14:31:19;102721.94;;;8.53;71.33
62725;BME280;49026;52.600;4.694;2023-03-03T14:36:50;102723.66;;;8.73;71.06
62725;BME280;49026;52.600;4.694;2023-03-03T14:39:33;102724.56;;;8.63;70.91
62725;BME280;49026;52.600;4.694;2023-03-03T14:44:56;102718.47;;;7.97;70.42
62725;BME280;49026;52.600;4.694;2023-03-03T14:47:26;102721.06;;;7.81;70.70
62725;BME280;49026;52.600;4.694;2023-03-03T14:49:53;102720.19;;;7.74;71.28
62725;BME280;49026;52.600;4.694;2023-03-03T14:52:20;102714.06;;;7.70;70.96
62725;BME280;49026;52.600;4.694;2023-03-03T14:54:49;102707.94;;;7.60;70.70
62725;BME280;49026;52.600;4.694;2023-03-03T14:57:41;102707.06;;;7.63;71.41
62725;BME280;49026;52.600;4.694;2023-03-03T15:05:25;102708.72;;;7.30;70.46
62725;BME280;49026;52.600;4.694;2023-03-03T15:13:26;102704.28;;;7.09;70.47
62725;BME280;49026;52.600;4.694;2023-03-03T15:16:17;102699.03;;;7.08;71.12
62725;BME280;49026;52.600;4.694;2023-03-03T15:21:30;102693.78;;;7.03;71.12
62725;BME280;49026;52.600;4.694;2023-03-03T15:24:23;102692.94;;;7.02;70.84
62725;BME280;49026;52.600;4.694;2023-03-03T15:27:00;102692.91;;;7.01;71.00
62725;BME280;49026;52.600;4.694;2023-03-03T15:29:57;102694.66;;;6.97;70.65
62725;BME280;49026;52.600;4.694;2023-03-03T15:35:38;102677.16;;;6.82;70.14
62725;BME280;49026;52.600;4.694;2023-03-03T15:40:51;102685.81;;;6.72;69.86
62725;BME280;49026;52.600;4.694;2023-03-03T15:43:50;102677.94;;;6.69;70.28
62725;BME280;49026;52.600;4.694;2023-03-03T15:46:41;102686.63;;;6.68;70.41
62725;BME280;49026;52.600;4.694;2023-03-03T15:55:12;102688.34;;;6.60;70.80
62725;BME280;49026;52.600;4.694;2023-03-03T16:03:25;102679.53;;;6.42;71.66
62725;BME280;49026;52.600;4.694;2023-03-03T16:06:05;102681.25;;;6.39;70.74
62725;BME280;49026;52.600;4.694;2023-03-03T16:12:42;102689.94;;;6.38;71.35
62725;BME280;49026;52.600;4.694;2023-03-03T16:14:40;102689.94;;;6.36;70.99
62725;BME280;49026;52.600;4.694;2023-03-03T16:17:26;102689.91;;;6.35;71.40
62725;BME280;49026;52.600;4.694;2023-03-03T16:20:13;102690.78;;;6.30;71.11
62725;BME280;49026;52.600;4.694;2023-03-03T16:25:53;102691.53;;;6.16;71.11
62725;BME280;49026;52.600;4.694;2023-03-03T16:28:58;102688.00;;;6.10;71.08
62725;BME280;49026;52.600;4.694;2023-03-03T16:31:36;102685.34;;;6.06;71.64
62725;BME280;49026;52.600;4.694;2023-03-03T16:40:07;102699.28;;;6.03;71.31
62725;BME280;49026;52.600;4.694;2023-03-03T16:42:35;102692.28;;;6.01;70.98
62725;BME280;49026;52.600;4.694;2023-03-03T16:45:32;102687.91;;;5.98;71.00
62725;BME280;49026;52.600;4.694;2023-03-03T16:48:13;102689.63;;;5.96;71.32
62725;BME280;49026;52.600;4.694;2023-03-03T16:56:20;102685.13;;;5.84;71.49
62725;BME280;49026;52.600;4.694;2023-03-03T16:59:00;102696.41;;;5.79;71.19
62725;BME280;49026;52.600;4.694;2023-03-03T17:09:22;102691.97;;;5.70;71.74
62725;BME280;49026;52.600;4.694;2023-03-03T17:12:16;102701.50;;;5.69;71.47
62725;BME280;49026;52.600;4.694;2023-03-03T17:17:39;102694.50;;;5.64;71.75
62725;BME280;49026;52.600;4.694;2023-03-03T17:20:36;102697.97;;;5.63;71.85